sensor_id;sensor_type;location;lat;lon;timestamp;pressure;altitude;pressure_sealevel;temperature;humidity
21234;BME280;10774;42.178;26.578;2023-12-22T00:01:05;98644.38;;;3.31;100.00
21234;BME280;10774;42.178;26.578;2023-12-22T00:03:31;98638.41;;;3.12;100.00
21234;BME280;10774;42.178;26.578;2023-12-22T00:05:56;98631.06;;;3.17;100.00
21234;BME280;10774;42.178;26.578;2023-12-22T00:08:22;98639.69;;;3.36;100.00
21234;BME280;10774;42.178;26.578;2023-12-22T00:10:49;98650.03;;;3.41;100.00
21234;BME280;10774;42.178;26.578;2023-12-22T00:13:14;98648.69;;;3.50;100.00
21234;BME280;10774;42.178;26.578;2023-12-22T00:15:40;98644.22;;;3.66;100.00
21234;BME280;10774;42.178;26.578;2023-12-22T00:18:05;98629.31;;;3.48;100.00
21234;BME280;10774;42.178;26.578;2023-12-22T00:20:31;98631.66;;;3.54;100.00
21234;BME280;10774;42.178;26.578;2023-12-22T00:22:57;98624.91;;;3.48;100.00
21234;BME280;10774;42.178;26.578;2023-12-22T00:25:22;98626.28;;;3.39;100.00
21234;BME280;10774;42.178;26.578;2023-12-22T00:27:47;98626.88;;;3.45;100.00
21234;BME280;10774;42.178;26.578;2023-12-22T00:30:13;98626.59;;;3.65;100.00
21234;BME280;10774;42.178;26.578;2023-12-22T00:32:39;98632.03;;;3.78;100.00
21234;BME280;10774;42.178;26.578;2023-12-22T00:35:05;98625.13;;;4.05;100.00
21234;BME280;10774;42.178;26.578;2023-12-22T00:37:30;98627.50;;;3.96;100.00
21234;BME280;10774;42.178;26.578;2023-12-22T00:39:55;98631.13;;;4.09;100.00
21234;BME280;10774;42.178;26.578;2023-12-22T00:42:21;98608.41;;;4.19;100.00
21234;BME280;10774;42.178;26.578;2023-12-22T00:44:46;98625.19;;;4.19;100.00
21234;BME280;10774;42.178;26.578;2023-12-22T00:47:12;98610.94;;;4.06;100.00
21234;BME280;10774;42.178;26.578;2023-12-22T00:49:37;98613.44;;;3.93;100.00
21234;BME280;10774;42.178;26.578;2023-12-22T00:52:03;98601.56;;;4.15;100.00
21234;BME280;10774;42.178;26.578;2023-12-22T00:54:29;98595.69;;;3.80;100.00
21234;BME280;10774;42.178;26.578;2023-12-22T00:56:57;98606.16;;;3.97;100.00
21234;BME280;10774;42.178;26.578;2023-12-22T00:59:22;98608.31;;;3.90;100.00
21234;BME280;10774;42.178;26.578;2023-12-22T01:01:48;98591.97;;;3.82;100.00
21234;BME280;10774;42.178;26.578;2023-12-22T01:04:13;98571.56;;;3.99;100.00
21234;BME280;10774;42.178;26.578;2023-12-22T01:06:40;98583.06;;;3.83;100.00
21234;BME280;10774;42.178;26.578;2023-12-22T01:09:05;98568.91;;;3.99;100.00
21234;BME280;10774;42.178;26.578;2023-12-22T01:11:31;98553.38;;;4.07;100.00
21234;BME280;10774;42.178;26.578;2023-12-22T01:13:56;98563.47;;;4.30;100.00
21234;BME280;10774;42.178;26.578;2023-12-22T01:16:22;98545.63;;;4.32;100.00
21234;BME280;10774;42.178;26.578;2023-12-22T01:18:49;98549.22;;;4.17;100.00
21234;BME280;10774;42.178;26.578;2023-12-22T01:21:16;98555.47;;;4.02;100.00
21234;BME280;10774;42.178;26.578;2023-12-22T01:23:41;98552.06;;;4.14;100.00
21234;BME280;10774;42.178;26.578;2023-12-22T01:26:07;98549.88;;;4.20;100.00
21234;BME280;10774;42.178;26.578;2023-12-22T01:28:34;98531.09;;;4.09;100.00
21234;BME280;10774;42.178;26.578;2023-12-22T01:31:00;98521.38;;;3.94;100.00
21234;BME280;10774;42.178;26.578;2023-12-22T01:33:25;98513.75;;;3.74;100.00
21234;BME280;10774;42.178;26.578;2023-12-22T01:35:50;98505.34;;;3.81;100.00
21234;BME280;10774;42.178;26.578;2023-12-22T01:38:16;98489.06;;;3.87;100.00
21234;BME280;10774;42.178;26.578;2023-12-22T01:40:41;98490.25;;;4.12;100.00
21234;BME280;10774;42.178;26.578;2023-12-22T01:43:07;98496.88;;;4.33;100.00
21234;BME280;10774;42.178;26.578;2023-12-22T01:45:32;98493.47;;;4.60;100.00
21234;BME280;10774;42.178;26.578;2023-12-22T01:47:58;98488.44;;;4.69;100.00
21234;BME280;10774;42.178;26.578;2023-12-22T01:50:23;98494.03;;;4.65;100.00
21234;BME280;10774;42.178;26.578;2023-12-22T01:52:49;98494.31;;;4.17;100.00
21234;BME280;10774;42.178;26.578;2023-12-22T01:55:16;98480.38;;;4.14;100.00
21234;BME280;10774;42.178;26.578;2023-12-22T01:57:43;98458.38;;;4.12;100.00
21234;BME280;10774;42.178;26.578;2023-12-22T02:00:11;98456.47;;;4.28;100.00
21234;BME280;10774;42.178;26.578;2023-12-22T02:02:37;98448.69;;;4.54;100.00
21234;BME280;10774;42.178;26.578;2023-12-22T02:05:04;98458.59;;;4.79;100.00
21234;BME280;10774;42.178;26.578;2023-12-22T02:07:31;98471.16;;;5.04;100.00
21234;BME280;10774;42.178;26.578;2023-12-22T02:09:57;98477.06;;;5.21;100.00
21234;BME280;10774;42.178;26.578;2023-12-22T02:12:22;98463.28;;;4.32;100.00
21234;BME280;10774;42.178;26.578;2023-12-22T02:14:48;98480.19;;;4.03;100.00
21234;BME280;10774;42.178;26.578;2023-12-22T02:17:31;98477.91;;;4.25;100.00
21234;BME280;10774;42.178;26.578;2023-12-22T02:19:58;98469.00;;;3.67;100.00
21234;BME280;10774;42.178;26.578;2023-12-22T02:22:24;98461.59;;;4.03;100.00
21234;BME280;10774;42.178;26.578;2023-12-22T02:24:49;98476.19;;;3.96;100.00
21234;BME280;10774;42.178;26.578;2023-12-22T02:27:50;98466.41;;;3.52;100.00
21234;BME280;10774;42.178;26.578;2023-12-22T02:30:32;98458.81;;;3.90;100.00
21234;BME280;10774;42.178;26.578;2023-12-22T02:33:01;98451.19;;;3.25;100.00
21234;BME280;10774;42.178;26.578;2023-12-22T02:35:29;98445.28;;;3.20;100.00
21234;BME280;10774;42.178;26.578;2023-12-22T02:37:59;98459.09;;;3.41;100.00
21234;BME280;10774;42.178;26.578;2023-12-22T02:40:26;98447.69;;;3.69;100.00
21234;BME280;10774;42.178;26.578;2023-12-22T02:42:53;98440.44;;;3.87;100.00
21234;BME280;10774;42.178;26.578;2023-12-22T02:45:19;98452.47;;;3.92;100.00
21234;BME280;10774;42.178;26.578;2023-12-22T02:47:45;98435.38;;;3.68;100.00
21234;BME280;10774;42.178;26.578;2023-12-22T02:50:13;98439.97;;;3.80;100.00
21234;BME280;10774;42.178;26.578;2023-12-22T02:52:39;98439.19;;;3.64;100.00
21234;BME280;10774;42.178;26.578;2023-12-22T02:55:05;98440.84;;;3.21;100.00
21234;BME280;10774;42.178;26.578;2023-12-22T02:57:30;98443.31;;;3.54;100.00
21234;BME280;10774;42.178;26.578;2023-12-22T02:59:56;98422.88;;;3.70;100.00
21234;BME280;10774;42.178;26.578;2023-12-22T03:02:22;98431.53;;;3.88;100.00
21234;BME280;10774;42.178;26.578;2023-12-22T03:04:47;98429.44;;;3.93;100.00
21234;BME280;10774;42.178;26.578;2023-12-22T03:07:13;98423.28;;;3.92;100.00
21234;BME280;10774;42.178;26.578;2023-12-22T03:09:39;98423.75;;;3.99;100.00
21234;BME280;10774;42.178;26.578;2023-12-22T03:12:06;98414.09;;;4.12;100.00
21234;BME280;10774;42.178;26.578;2023-12-22T03:14:32;98413.13;;;4.28;100.00
21234;BME280;10774;42.178;26.578;2023-12-22T03:17:02;98410.75;;;4.23;100.00
21234;BME280;10774;42.178;26.578;2023-12-22T03:19:28;98406.28;;;3.95;100.00
21234;BME280;10774;42.178;26.578;2023-12-22T03:21:54;98389.53;;;3.94;100.00
21234;BME280;10774;42.178;26.578;2023-12-22T03:24:19;98398.41;;;3.79;100.00
21234;BME280;10774;42.178;26.578;2023-12-22T03:26:46;98381.59;;;3.80;100.00
21234;BME280;10774;42.178;26.578;2023-12-22T03:29:11;98365.44;;;3.83;100.00
21234;BME280;10774;42.178;26.578;2023-12-22T03:31:37;98391.50;;;4.05;100.00
21234;BME280;10774;42.178;26.578;2023-12-22T03:34:02;98384.81;;;3.85;100.00
21234;BME280;10774;42.178;26.578;2023-12-22T03:36:28;98392.75;;;3.85;100.00
21234;BME280;10774;42.178;26.578;2023-12-22T03:38:53;98382.69;;;3.62;100.00
21234;BME280;10774;42.178;26.578;2023-12-22T03:41:19;98386.06;;;3.35;100.00
21234;BME280;10774;42.178;26.578;2023-12-22T03:43:45;98390.19;;;3.25;100.00
21234;BME280;10774;42.178;26.578;2023-12-22T03:46:10;98371.47;;;3.42;100.00
21234;BME280;10774;42.178;26.578;2023-12-22T03:48:35;98389.53;;;3.66;100.00
21234;BME280;10774;42.178;26.578;2023-12-22T03:51:01;98373.03;;;3.75;100.00
21234;BME280;10774;42.178;26.578;2023-12-22T03:53:26;98381.00;;;3.61;100.00
21234;BME280;10774;42.178;26.578;2023-12-22T03:55:52;98378.16;;;3.78;100.00
21234;BME280;10774;42.178;26.578;2023-12-22T03:58:17;98375.84;;;3.58;100.00
21234;BME280;10774;42.178;26.578;2023-12-22T04:00:42;98364.91;;;3.64;100.00
21234;BME280;10774;42.178;26.578;2023-12-22T04:03:08;98376.84;;;3.71;100.00
21234;BME280;10774;42.178;26.578;2023-12-22T04:05:33;98372.06;;;3.62;100.00
21234;BME280;10774;42.178;26.578;2023-12-22T04:07:58;98385.75;;;3.70;100.00
21234;BME280;10774;42.178;26.578;2023-12-22T04:10:24;98386.22;;;3.77;100.00
21234;BME280;10774;42.178;26.578;2023-12-22T04:12:49;98384.22;;;3.80;100.00
21234;BME280;10774;42.178;26.578;2023-12-22T04:15:15;98382.69;;;3.62;100.00
21234;BME280;10774;42.178;26.578;2023-12-22T04:17:40;98380.16;;;3.30;100.00
21234;BME280;10774;42.178;26.578;2023-12-22T04:20:07;98366.97;;;3.59;100.00
21234;BME280;10774;42.178;26.578;2023-12-22T04:22:32;98374.91;;;3.73;100.00
21234;BME280;10774;42.178;26.578;2023-12-22T04:24:58;98361.66;;;3.87;100.00
21234;BME280;10774;42.178;26.578;2023-12-22T04:27:24;98379.97;;;4.06;100.00
21234;BME280;10774;42.178;26.578;2023-12-22T04:29:49;98386.69;;;3.83;100.00
21234;BME280;10774;42.178;26.578;2023-12-22T04:32:15;98392.28;;;3.93;100.00
21234;BME280;10774;42.178;26.578;2023-12-22T04:34:40;98371.72;;;3.97;100.00
21234;BME280;10774;42.178;26.578;2023-12-22T04:37:05;98378.72;;;3.98;100.00
21234;BME280;10774;42.178;26.578;2023-12-22T04:39:31;98373.81;;;3.91;100.00
21234;BME280;10774;42.178;26.578;2023-12-22T04:41:56;98360.59;;;4.04;100.00
21234;BME280;10774;42.178;26.578;2023-12-22T04:44:21;98375.00;;;4.14;100.00
21234;BME280;10774;42.178;26.578;2023-12-22T04:46:47;98371.09;;;4.34;100.00
21234;BME280;10774;42.178;26.578;2023-12-22T04:49:12;98369.03;;;4.25;100.00
21234;BME280;10774;42.178;26.578;2023-12-22T04:51:38;98379.84;;;4.22;100.00
21234;BME280;10774;42.178;26.578;2023-12-22T04:54:03;98377.00;;;4.25;100.00
21234;BME280;10774;42.178;26.578;2023-12-22T04:56:29;98359.00;;;4.02;100.00
21234;BME280;10774;42.178;26.578;2023-12-22T04:58:54;98366.88;;;4.17;100.00
21234;BME280;10774;42.178;26.578;2023-12-22T05:01:19;98351.69;;;4.19;100.00
21234;BME280;10774;42.178;26.578;2023-12-22T05:03:46;98364.47;;;4.27;100.00
21234;BME280;10774;42.178;26.578;2023-12-22T05:06:11;98367.13;;;4.27;100.00
21234;BME280;10774;42.178;26.578;2023-12-22T05:08:37;98364.22;;;4.17;100.00
21234;BME280;10774;42.178;26.578;2023-12-22T05:11:02;98382.69;;;4.19;100.00
21234;BME280;10774;42.178;26.578;2023-12-22T05:13:28;98372.09;;;3.90;100.00
21234;BME280;10774;42.178;26.578;2023-12-22T05:15:53;98382.72;;;3.90;100.00
21234;BME280;10774;42.178;26.578;2023-12-22T05:18:20;98369.91;;;3.83;100.00
21234;BME280;10774;42.178;26.578;2023-12-22T05:20:45;98376.06;;;3.55;100.00
21234;BME280;10774;42.178;26.578;2023-12-22T05:23:11;98399.53;;;3.47;100.00
21234;BME280;10774;42.178;26.578;2023-12-22T05:25:36;98382.28;;;3.39;100.00
21234;BME280;10774;42.178;26.578;2023-12-22T05:28:02;98379.88;;;3.65;100.00
21234;BME280;10774;42.178;26.578;2023-12-22T05:30:27;98377.03;;;3.82;100.00
21234;BME280;10774;42.178;26.578;2023-12-22T05:32:53;98385.91;;;4.10;100.00
21234;BME280;10774;42.178;26.578;2023-12-22T05:35:20;98375.22;;;4.11;100.00
21234;BME280;10774;42.178;26.578;2023-12-22T05:37:45;98374.50;;;4.36;100.00
21234;BME280;10774;42.178;26.578;2023-12-22T05:40:10;98366.53;;;4.36;100.00
21234;BME280;10774;42.178;26.578;2023-12-22T05:42:37;98374.84;;;4.59;100.00
21234;BME280;10774;42.178;26.578;2023-12-22T05:45:03;98365.28;;;4.42;100.00
21234;BME280;10774;42.178;26.578;2023-12-22T05:47:28;98377.03;;;4.52;100.00
21234;BME280;10774;42.178;26.578;2023-12-22T05:49:54;98371.41;;;4.57;100.00
21234;BME280;10774;42.178;26.578;2023-12-22T05:52:19;98375.78;;;4.58;100.00
21234;BME280;10774;42.178;26.578;2023-12-22T05:54:45;98377.28;;;4.62;100.00
21234;BME280;10774;42.178;26.578;2023-12-22T05:57:10;98375.19;;;4.67;100.00
21234;BME280;10774;42.178;26.578;2023-12-22T05:59:35;98372.41;;;4.68;100.00
21234;BME280;10774;42.178;26.578;2023-12-22T06:02:02;98378.34;;;4.86;100.00
21234;BME280;10774;42.178;26.578;2023-12-22T06:04:28;98378.75;;;4.80;100.00
21234;BME280;10774;42.178;26.578;2023-12-22T06:06:53;98385.97;;;4.78;100.00
21234;BME280;10774;42.178;26.578;2023-12-22T06:09:19;98373.94;;;4.72;100.00
21234;BME280;10774;42.178;26.578;2023-12-22T06:11:46;98356.19;;;4.73;100.00
21234;BME280;10774;42.178;26.578;2023-12-22T06:14:12;98373.13;;;4.85;100.00
21234;BME280;10774;42.178;26.578;2023-12-22T06:16:37;98372.56;;;4.80;100.00
21234;BME280;10774;42.178;26.578;2023-12-22T06:19:02;98375.28;;;4.92;100.00
21234;BME280;10774;42.178;26.578;2023-12-22T06:21:28;98377.66;;;4.97;100.00
21234;BME280;10774;42.178;26.578;2023-12-22T06:23:54;98375.25;;;5.07;100.00
21234;BME280;10774;42.178;26.578;2023-12-22T06:26:19;98376.44;;;4.88;100.00
21234;BME280;10774;42.178;26.578;2023-12-22T06:28:44;98369.00;;;4.93;100.00
21234;BME280;10774;42.178;26.578;2023-12-22T06:31:18;98377.72;;;4.95;100.00
21234;BME280;10774;42.178;26.578;2023-12-22T06:33:44;98380.84;;;5.02;100.00
21234;BME280;10774;42.178;26.578;2023-12-22T06:36:21;98386.81;;;5.06;100.00
21234;BME280;10774;42.178;26.578;2023-12-22T06:38:55;98393.31;;;5.02;100.00
21234;BME280;10774;42.178;26.578;2023-12-22T06:41:27;98376.16;;;5.06;100.00
21234;BME280;10774;42.178;26.578;2023-12-22T06:43:53;98386.66;;;4.94;100.00
21234;BME280;10774;42.178;26.578;2023-12-22T06:46:20;98391.19;;;5.07;100.00
21234;BME280;10774;42.178;26.578;2023-12-22T06:48:45;98374.06;;;5.11;100.00
21234;BME280;10774;42.178;26.578;2023-12-22T06:51:21;98400.16;;;5.18;100.00
21234;BME280;10774;42.178;26.578;2023-12-22T06:53:50;98394.78;;;5.06;100.00
21234;BME280;10774;42.178;26.578;2023-12-22T06:56:24;98391.97;;;4.94;100.00
21234;BME280;10774;42.178;26.578;2023-12-22T06:58:51;98384.72;;;4.84;100.00
21234;BME280;10774;42.178;26.578;2023-12-22T07:01:24;98396.56;;;4.92;100.00
21234;BME280;10774;42.178;26.578;2023-12-22T07:03:50;98387.75;;;5.05;100.00
21234;BME280;10774;42.178;26.578;2023-12-22T07:06:17;98386.00;;;5.18;100.00
21234;BME280;10774;42.178;26.578;2023-12-22T07:08:43;98390.84;;;5.11;100.00
21234;BME280;10774;42.178;26.578;2023-12-22T07:11:09;98405.22;;;5.09;100.00
21234;BME280;10774;42.178;26.578;2023-12-22T07:13:35;98385.19;;;4.90;100.00
21234;BME280;10774;42.178;26.578;2023-12-22T07:16:01;98377.53;;;4.98;100.00
21234;BME280;10774;42.178;26.578;2023-12-22T07:18:28;98381.28;;;5.09;100.00
21234;BME280;10774;42.178;26.578;2023-12-22T07:20:56;98369.09;;;5.19;100.00
21234;BME280;10774;42.178;26.578;2023-12-22T07:23:22;98374.97;;;5.37;100.00
21234;BME280;10774;42.178;26.578;2023-12-22T07:25:48;98381.34;;;5.34;100.00
21234;BME280;10774;42.178;26.578;2023-12-22T07:28:13;98379.44;;;5.36;100.00
21234;BME280;10774;42.178;26.578;2023-12-22T07:30:39;98368.16;;;5.45;100.00
21234;BME280;10774;42.178;26.578;2023-12-22T07:33:04;98364.44;;;5.48;100.00
21234;BME280;10774;42.178;26.578;2023-12-22T07:35:30;98368.28;;;5.57;100.00
21234;BME280;10774;42.178;26.578;2023-12-22T07:37:55;98350.19;;;5.74;100.00
21234;BME280;10774;42.178;26.578;2023-12-22T07:40:21;98349.34;;;5.87;100.00
21234;BME280;10774;42.178;26.578;2023-12-22T07:42:46;98331.13;;;5.81;100.00
21234;BME280;10774;42.178;26.578;2023-12-22T07:45:15;98332.06;;;6.05;100.00
21234;BME280;10774;42.178;26.578;2023-12-22T07:47:40;98310.53;;;6.21;100.00
21234;BME280;10774;42.178;26.578;2023-12-22T07:50:06;98316.38;;;6.26;100.00
21234;BME280;10774;42.178;26.578;2023-12-22T07:52:35;98327.34;;;6.21;100.00
21234;BME280;10774;42.178;26.578;2023-12-22T07:55:08;98321.84;;;6.12;100.00
21234;BME280;10774;42.178;26.578;2023-12-22T07:57:37;98328.66;;;6.16;100.00
21234;BME280;10774;42.178;26.578;2023-12-22T08:00:04;98313.69;;;6.26;100.00
21234;BME280;10774;42.178;26.578;2023-12-22T08:02:31;98300.75;;;6.09;100.00
21234;BME280;10774;42.178;26.578;2023-12-22T08:04:57;98312.91;;;6.13;100.00
21234;BME280;10774;42.178;26.578;2023-12-22T08:07:22;98309.47;;;6.11;100.00
21234;BME280;10774;42.178;26.578;2023-12-22T08:09:48;98318.63;;;6.19;100.00
21234;BME280;10774;42.178;26.578;2023-12-22T08:12:13;98314.47;;;6.28;100.00
21234;BME280;10774;42.178;26.578;2023-12-22T08:14:39;98302.59;;;6.32;100.00
21234;BME280;10774;42.178;26.578;2023-12-22T08:17:04;98317.19;;;6.39;100.00
21234;BME280;10774;42.178;26.578;2023-12-22T08:19:29;98313.78;;;6.37;100.00
21234;BME280;10774;42.178;26.578;2023-12-22T08:21:55;98321.75;;;6.37;100.00
21234;BME280;10774;42.178;26.578;2023-12-22T08:24:21;98316.22;;;6.40;100.00
21234;BME280;10774;42.178;26.578;2023-12-22T08:26:46;98317.47;;;6.47;100.00
21234;BME280;10774;42.178;26.578;2023-12-22T08:29:12;98351.75;;;6.65;100.00
21234;BME280;10774;42.178;26.578;2023-12-22T08:31:37;98334.41;;;6.22;100.00
21234;BME280;10774;42.178;26.578;2023-12-22T08:34:03;98354.91;;;5.96;100.00
21234;BME280;10774;42.178;26.578;2023-12-22T08:36:28;98342.00;;;5.65;100.00
21234;BME280;10774;42.178;26.578;2023-12-22T08:38:53;98363.81;;;5.95;100.00
21234;BME280;10774;42.178;26.578;2023-12-22T08:41:19;98346.59;;;5.75;100.00
21234;BME280;10774;42.178;26.578;2023-12-22T08:43:45;98345.50;;;5.78;100.00
21234;BME280;10774;42.178;26.578;2023-12-22T08:46:11;98342.31;;;5.73;100.00
21234;BME280;10774;42.178;26.578;2023-12-22T08:48:37;98326.44;;;5.59;100.00
21234;BME280;10774;42.178;26.578;2023-12-22T08:51:02;98341.66;;;5.82;100.00
21234;BME280;10774;42.178;26.578;2023-12-22T08:53:29;98338.69;;;5.74;100.00
21234;BME280;10774;42.178;26.578;2023-12-22T08:55:59;98336.22;;;5.84;100.00
21234;BME280;10774;42.178;26.578;2023-12-22T08:58:26;98328.28;;;5.96;100.00
21234;BME280;10774;42.178;26.578;2023-12-22T09:00:51;98339.84;;;6.08;100.00
21234;BME280;10774;42.178;26.578;2023-12-22T09:03:16;98336.34;;;6.08;100.00
21234;BME280;10774;42.178;26.578;2023-12-22T09:05:42;98357.03;;;5.91;100.00
21234;BME280;10774;42.178;26.578;2023-12-22T09:08:07;98352.53;;;5.79;100.00
21234;BME280;10774;42.178;26.578;2023-12-22T09:10:33;98338.69;;;5.74;100.00
21234;BME280;10774;42.178;26.578;2023-12-22T09:12:58;98338.16;;;5.69;100.00
21234;BME280;10774;42.178;26.578;2023-12-22T09:15:24;98355.06;;;5.17;100.00
21234;BME280;10774;42.178;26.578;2023-12-22T09:17:49;98365.72;;;5.42;100.00
21234;BME280;10774;42.178;26.578;2023-12-22T09:20:17;98357.00;;;5.66;100.00
21234;BME280;10774;42.178;26.578;2023-12-22T09:22:42;98362.72;;;5.85;100.00
21234;BME280;10774;42.178;26.578;2023-12-22T09:25:07;98349.78;;;5.93;100.00
21234;BME280;10774;42.178;26.578;2023-12-22T09:27:34;98347.22;;;6.05;100.00
21234;BME280;10774;42.178;26.578;2023-12-22T09:29:59;98346.13;;;6.20;100.00
21234;BME280;10774;42.178;26.578;2023-12-22T09:32:25;98348.66;;;6.21;100.00
21234;BME280;10774;42.178;26.578;2023-12-22T09:34:52;98345.22;;;6.32;100.00
21234;BME280;10774;42.178;26.578;2023-12-22T09:37:17;98339.63;;;6.48;100.00
21234;BME280;10774;42.178;26.578;2023-12-22T09:39:43;98337.91;;;6.60;100.00
21234;BME280;10774;42.178;26.578;2023-12-22T09:42:08;98330.81;;;6.71;100.00
21234;BME280;10774;42.178;26.578;2023-12-22T09:44:36;98315.88;;;6.69;100.00
21234;BME280;10774;42.178;26.578;2023-12-22T09:47:04;98317.41;;;6.84;100.00
21234;BME280;10774;42.178;26.578;2023-12-22T09:49:33;98306.34;;;7.01;100.00
21234;BME280;10774;42.178;26.578;2023-12-22T09:51:59;98285.69;;;6.92;100.00
21234;BME280;10774;42.178;26.578;2023-12-22T09:54:26;98287.44;;;7.16;100.00
21234;BME280;10774;42.178;26.578;2023-12-22T09:56:53;98281.41;;;7.14;100.00
21234;BME280;10774;42.178;26.578;2023-12-22T09:59:19;98270.22;;;7.08;100.00
21234;BME280;10774;42.178;26.578;2023-12-22T10:01:47;98263.44;;;7.16;100.00
21234;BME280;10774;42.178;26.578;2023-12-22T10:04:14;98253.69;;;6.92;100.00
21234;BME280;10774;42.178;26.578;2023-12-22T10:06:40;98256.38;;;7.03;100.00
21234;BME280;10774;42.178;26.578;2023-12-22T10:09:07;98258.44;;;7.00;100.00
21234;BME280;10774;42.178;26.578;2023-12-22T10:11:35;98245.47;;;7.06;100.00
21234;BME280;10774;42.178;26.578;2023-12-22T10:14:02;98258.59;;;7.21;100.00
21234;BME280;10774;42.178;26.578;2023-12-22T10:16:28;98262.72;;;7.14;100.00
21234;BME280;10774;42.178;26.578;2023-12-22T10:18:53;98273.28;;;7.26;100.00
21234;BME280;10774;42.178;26.578;2023-12-22T10:21:19;98262.72;;;7.14;100.00
21234;BME280;10774;42.178;26.578;2023-12-22T10:23:44;98254.44;;;7.05;100.00
21234;BME280;10774;42.178;26.578;2023-12-22T10:26:13;98268.53;;;7.07;100.00
21234;BME280;10774;42.178;26.578;2023-12-22T10:28:38;98257.94;;;6.95;100.00
21234;BME280;10774;42.178;26.578;2023-12-22T10:31:04;98253.25;;;6.74;100.00
21234;BME280;10774;42.178;26.578;2023-12-22T10:33:32;98245.84;;;6.67;100.00
21234;BME280;10774;42.178;26.578;2023-12-22T10:36:00;98246.16;;;6.86;100.00
21234;BME280;10774;42.178;26.578;2023-12-22T10:38:31;98243.28;;;7.00;100.00
21234;BME280;10774;42.178;26.578;2023-12-22T10:40:57;98246.66;;;6.91;100.00
21234;BME280;10774;42.178;26.578;2023-12-22T10:43:23;98246.31;;;6.61;100.00
21234;BME280;10774;42.178;26.578;2023-12-22T10:45:52;98238.72;;;6.19;100.00
21234;BME280;10774;42.178;26.578;2023-12-22T10:48:17;98223.31;;;6.12;100.00
21234;BME280;10774;42.178;26.578;2023-12-22T10:50:43;98227.69;;;6.00;100.00
21234;BME280;10774;42.178;26.578;2023-12-22T10:53:10;98227.81;;;5.49;100.00
21234;BME280;10774;42.178;26.578;2023-12-22T10:55:36;98207.56;;;5.59;100.00
21234;BME280;10774;42.178;26.578;2023-12-22T10:58:05;98219.63;;;6.01;100.00
21234;BME280;10774;42.178;26.578;2023-12-22T11:00:32;98214.75;;;6.19;100.00
21234;BME280;10774;42.178;26.578;2023-12-22T11:03:01;98221.53;;;5.99;100.00
21234;BME280;10774;42.178;26.578;2023-12-22T11:05:29;98217.84;;;5.64;100.00
21234;BME280;10774;42.178;26.578;2023-12-22T11:08:00;98225.69;;;5.78;100.00
21234;BME280;10774;42.178;26.578;2023-12-22T11:10:30;98222.19;;;5.77;100.00
21234;BME280;10774;42.178;26.578;2023-12-22T11:12:57;98219.69;;;5.50;100.00
21234;BME280;10774;42.178;26.578;2023-12-22T11:15:22;98218.75;;;5.39;100.00
21234;BME280;10774;42.178;26.578;2023-12-22T11:17:51;98222.78;;;5.44;100.00
21234;BME280;10774;42.178;26.578;2023-12-22T11:20:17;98217.47;;;5.44;100.00
21234;BME280;10774;42.178;26.578;2023-12-22T11:22:44;98226.91;;;5.61;100.00
21234;BME280;10774;42.178;26.578;2023-12-22T11:25:10;98231.16;;;5.64;100.00
21234;BME280;10774;42.178;26.578;2023-12-22T11:27:37;98215.97;;;5.40;100.00
21234;BME280;10774;42.178;26.578;2023-12-22T11:30:04;98230.34;;;5.50;100.00
21234;BME280;10774;42.178;26.578;2023-12-22T11:32:33;98220.13;;;5.44;100.00
21234;BME280;10774;42.178;26.578;2023-12-22T11:34:59;98228.88;;;5.34;100.00
21234;BME280;10774;42.178;26.578;2023-12-22T11:37:25;98211.00;;;5.23;100.00
21234;BME280;10774;42.178;26.578;2023-12-22T11:39:50;98226.59;;;5.66;100.00
21234;BME280;10774;42.178;26.578;2023-12-22T11:42:21;98215.06;;;5.78;100.00
21234;BME280;10774;42.178;26.578;2023-12-22T11:44:48;98221.63;;;5.85;100.00
21234;BME280;10774;42.178;26.578;2023-12-22T11:47:14;98200.56;;;5.82;100.00
21234;BME280;10774;42.178;26.578;2023-12-22T11:49:40;98212.56;;;6.00;100.00
21234;BME280;10774;42.178;26.578;2023-12-22T11:52:17;98201.81;;;6.26;100.00
21234;BME280;10774;42.178;26.578;2023-12-22T11:54:50;98190.44;;;6.24;100.00
21234;BME280;10774;42.178;26.578;2023-12-22T11:59:55;98209.97;;;6.60;100.00
21234;BME280;10774;42.178;26.578;2023-12-22T12:02:21;98185.16;;;6.70;100.00
21234;BME280;10774;42.178;26.578;2023-12-22T12:04:57;98187.00;;;6.81;100.00
21234;BME280;10774;42.178;26.578;2023-12-22T12:07:40;98184.56;;;6.89;100.00
21234;BME280;10774;42.178;26.578;2023-12-22T12:10:11;98180.97;;;7.01;100.00
21234;BME280;10774;42.178;26.578;2023-12-22T12:12:37;98177.00;;;7.07;100.00
21234;BME280;10774;42.178;26.578;2023-12-22T12:15:08;98179.75;;;7.05;100.00
21234;BME280;10774;42.178;26.578;2023-12-22T12:17:38;98176.59;;;7.12;100.00
21234;BME280;10774;42.178;26.578;2023-12-22T12:20:07;98168.72;;;7.21;100.00
21234;BME280;10774;42.178;26.578;2023-12-22T12:22:33;98167.66;;;7.35;100.00
21234;BME280;10774;42.178;26.578;2023-12-22T12:24:59;98164.97;;;7.35;100.00
21234;BME280;10774;42.178;26.578;2023-12-22T12:27:26;98167.88;;;7.43;100.00
21234;BME280;10774;42.178;26.578;2023-12-22T12:29:52;98164.97;;;7.46;100.00
21234;BME280;10774;42.178;26.578;2023-12-22T12:32:18;98154.91;;;7.61;100.00
21234;BME280;10774;42.178;26.578;2023-12-22T12:34:49;98159.41;;;7.49;100.00
21234;BME280;10774;42.178;26.578;2023-12-22T12:37:15;98159.25;;;7.62;100.00
21234;BME280;10774;42.178;26.578;2023-12-22T12:39:41;98159.38;;;7.60;100.00
21234;BME280;10774;42.178;26.578;2023-12-22T12:42:10;98164.06;;;7.79;100.00
21234;BME280;10774;42.178;26.578;2023-12-22T12:44:41;98148.06;;;7.68;100.00
21234;BME280;10774;42.178;26.578;2023-12-22T12:47:14;98157.44;;;7.63;100.00
21234;BME280;10774;42.178;26.578;2023-12-22T12:49:40;98148.94;;;7.57;100.00